Ashton, Kansas
Current Conditions -  °F | °C
As of 8:54 PM on Monday 20 Oct 2014 (Local Time) from KWLD Reporting Station
Clear Clear  
Wind Chill: 63°   Ceiling: Unl
Heat Index: 63°   Visibility: 10mi
Dew Point: 52°   Wind: 3mph
Humidity: 67%   Direction: 110°ESE
Pressure: 30.06"   Gusts: NA
Location:  37.0641°N, 97.2025°W
Report Text: KWLD 210154Z AUTO 11003KT 10SM CLR 17/11 A3006 RMK AO2 SLP174 T01720111
Loading
Personal Weather Stations






























Interactive Weather Map New forecast layout! Learn more

10-Day Weather Forecast

Advertisements
Track Severe Weather on mobile